Time;durP1;ratioP1;P1;durP2;ratioP2;P2;SDS_P1;SDS_P2;PMS_P1;PMS_P2;Temp;Humidity;BMP_temperature;BMP_pressure;BME280_temperature;BME280_humidity;BME280_pressure;Samples;Min_cycle;Max_cycle;Signal;HPM_P1;HPM_P2
2024/04/22 00:01:40;;;;;;;4.78;4.30;;;1.40;99.90;;;;;;469556;252;27592;-70
2024/04/22 00:03:42;;;;;;;4.35;3.95;;;1.20;99.90;;;;;;469531;252;27435;-70
2024/04/22 00:05:43;;;;;;;5.40;3.70;;;1.20;99.90;;;;;;469489;252;27918;-71
2024/04/22 00:07:44;;;;;;;4.65;4.25;;;1.10;99.90;;;;;;469544;252;28022;-72
2024/04/22 00:09:45;;;;;;;4.80;3.75;;;1.10;99.90;;;;;;469527;252;27974;-71
2024/04/22 00:11:47;;;;;;;4.40;4.00;;;1.00;99.90;;;;;;469537;252;28034;-70
2024/04/22 00:13:48;;;;;;;4.45;4.05;;;1.00;99.90;;;;;;469491;252;27419;-70
2024/04/22 00:15:49;;;;;;;5.97;3.67;;;0.90;99.90;;;;;;469516;252;27499;-71
2024/04/22 00:17:50;;;;;;;4.30;3.90;;;0.90;99.90;;;;;;469530;252;27467;-72
2024/04/22 00:19:53;;;;;;;4.70;4.12;;;0.80;99.90;;;;;;469496;252;27423;-70
2024/04/22 00:21:53;;;;;;;4.18;3.78;;;0.70;99.90;;;;;;469441;253;27540;-71
2024/04/22 00:23:54;;;;;;;4.87;4.37;;;0.60;99.90;;;;;;469509;252;27428;-70
2024/04/22 00:25:55;;;;;;;5.15;4.60;;;0.60;99.90;;;;;;469490;252;27419;-70
2024/04/22 00:27:57;;;;;;;5.03;4.20;;;0.50;99.90;;;;;;469548;252;27470;-71
2024/04/22 00:29:58;;;;;;;6.18;5.00;;;0.40;99.90;;;;;;469524;252;27423;-70
2024/04/22 00:31:59;;;;;;;4.25;3.78;;;0.30;99.90;;;;;;469522;252;27454;-70
2024/04/22 00:34:00;;;;;;;5.47;4.50;;;0.20;99.90;;;;;;469514;252;28652;-70
2024/04/22 00:36:02;;;;;;;5.00;3.87;;;0.20;99.90;;;;;;469515;252;28028;-71
2024/04/22 00:38:03;;;;;;;4.65;4.25;;;0.10;99.90;;;;;;469522;252;27965;-70
2024/04/22 00:40:04;;;;;;;6.37;4.65;;;0.10;99.90;;;;;;469395;253;27884;-71
2024/04/22 00:42:05;;;;;;;5.50;4.15;;;0.00;99.90;;;;;;469487;252;27530;-70
2024/04/22 00:44:07;;;;;;;5.03;4.53;;;0.00;99.90;;;;;;469493;252;27451;-72
2024/04/22 00:46:08;;;;;;;5.68;4.75;;;0.00;99.90;;;;;;469508;252;27562;-70
2024/04/22 00:48:09;;;;;;;5.03;4.53;;;0.00;99.90;;;;;;469513;252;27482;-71
2024/04/22 00:50:10;;;;;;;6.30;4.90;;;0.00;99.90;;;;;;469455;252;27534;-70
2024/04/22 00:52:12;;;;;;;7.75;5.25;;;0.00;99.90;;;;;;469491;252;27555;-70
2024/04/22 00:54:13;;;;;;;4.72;4.32;;;0.00;99.90;;;;;;469498;252;27466;-72
2024/04/22 00:56:14;;;;;;;4.87;4.40;;;0.00;99.90;;;;;;469483;252;27497;-70
2024/04/22 00:58:15;;;;;;;8.30;4.65;;;-0.10;99.90;;;;;;469491;252;27456;-71
2024/04/22 01:00:17;;;;;;;5.40;4.80;;;-0.10;99.90;;;;;;469483;252;28462;-70
2024/04/22 01:02:18;;;;;;;5.78;4.68;;;-0.10;99.90;;;;;;469525;252;27887;-71
2024/04/22 01:04:19;;;;;;;5.90;4.70;;;-0.10;99.90;;;;;;469534;252;27949;-71
2024/04/22 01:06:20;;;;;;;4.95;4.30;;;-0.10;99.90;;;;;;469491;252;27486;-70
2024/04/22 01:08:22;;;;;;;5.22;4.65;;;-0.10;99.90;;;;;;469385;252;27505;-70
2024/04/22 01:10:26;;;;;;;5.72;4.78;;;-0.10;99.90;;;;;;469426;252;27482;-70
2024/04/22 01:12:24;;;;;;;4.97;4.50;;;-0.10;99.90;;;;;;469206;253;27407;-70
2024/04/22 01:14:26;;;;;;;5.40;4.65;;;-0.20;99.90;;;;;;469437;252;27590;-71
2024/04/22 01:16:27;;;;;;;5.43;4.47;;;-0.10;99.90;;;;;;469430;252;27498;-71
2024/04/22 01:18:28;;;;;;;5.65;4.55;;;-0.10;99.90;;;;;;469449;252;27449;-70
2024/04/22 01:20:29;;;;;;;5.43;4.62;;;-0.10;99.90;;;;;;469472;252;27934;-72
2024/04/22 01:22:30;;;;;;;4.35;3.97;;;-0.10;99.90;;;;;;469485;252;27910;-70
2024/04/22 01:24:32;;;;;;;5.30;4.68;;;-0.10;99.90;;;;;;469455;252;28062;-70
2024/04/22 01:26:33;;;;;;;5.07;4.57;;;-0.20;99.90;;;;;;469441;252;27431;-70
2024/04/22 01:28:34;;;;;;;7.05;5.07;;;-0.20;99.90;;;;;;469519;252;27446;-70
2024/04/22 01:30:35;;;;;;;4.20;3.80;;;-0.30;99.90;;;;;;469488;252;27530;-71
2024/04/22 01:32:37;;;;;;;4.70;3.87;;;-0.30;99.90;;;;;;469499;252;27431;-70
2024/04/22 01:34:38;;;;;;;6.93;5.07;;;-0.30;99.90;;;;;;469502;252;27466;-70
2024/04/22 01:36:41;;;;;;;6.62;4.90;;;-0.30;99.90;;;;;;469519;252;27452;-71
2024/04/22 01:38:40;;;;;;;6.85;5.05;;;-0.40;99.90;;;;;;469430;253;27553;-70
2024/04/22 01:40:42;;;;;;;4.65;4.25;;;-0.40;99.90;;;;;;469489;252;27994;-70
2024/04/22 01:42:43;;;;;;;4.65;4.25;;;-0.40;99.90;;;;;;469486;252;27870;-70
2024/04/22 01:44:44;;;;;;;5.00;4.47;;;-0.40;99.90;;;;;;469500;252;27928;-71
2024/04/22 01:46:45;;;;;;;5.07;4.25;;;-0.40;99.90;;;;;;469507;252;27462;-71
2024/04/22 01:48:47;;;;;;;5.00;4.50;;;-0.50;99.90;;;;;;469479;252;27557;-70
2024/04/22 01:50:48;;;;;;;5.60;4.80;;;-0.50;99.90;;;;;;469496;252;27486;-71
2024/04/22 01:52:49;;;;;;;7.68;4.40;;;-0.40;99.90;;;;;;469471;252;27494;-70
2024/04/22 01:54:51;;;;;;;5.15;4.22;;;-0.40;99.90;;;;;;469493;252;27482;-70
2024/04/22 01:56:55;;;;;;;6.65;4.55;;;-0.40;99.90;;;;;;469516;252;27548;-71
2024/04/22 01:58:53;;;;;;;4.90;4.40;;;-0.10;99.90;;;;;;469380;253;27460;-71
2024/04/22 02:00:54;;;;;;;4.68;4.18;;;-0.10;99.90;;;;;;469498;252;27933;-70
2024/04/22 02:02:56;;;;;;;4.30;3.90;;;-0.20;99.90;;;;;;469499;252;28779;-70
2024/04/22 02:04:57;;;;;;;5.90;4.25;;;-0.20;99.90;;;;;;469508;252;27969;-70
2024/04/22 02:06:58;;;;;;;5.37;4.70;;;-0.20;99.90;;;;;;469484;252;27484;-71
2024/04/22 02:08:59;;;;;;;4.40;4.00;;;-0.10;99.90;;;;;;469479;252;27415;-70
2024/04/22 02:11:01;;;;;;;4.30;3.90;;;0.00;99.90;;;;;;469501;252;27536;-70
2024/04/22 02:13:02;;;;;;;4.32;3.92;;;0.10;99.90;;;;;;469508;252;27475;-70
2024/04/22 02:15:03;;;;;;;7.47;4.40;;;0.20;99.90;;;;;;469561;252;27521;-70
2024/04/22 02:17:04;;;;;;;6.35;4.25;;;0.30;99.90;;;;;;469496;252;27590;-71
2024/04/22 02:19:06;;;;;;;6.10;3.85;;;0.30;99.90;;;;;;469503;252;27499;-70
2024/04/22 02:21:07;;;;;;;12.95;4.65;;;0.50;99.90;;;;;;469508;252;27532;-70
2024/04/22 02:23:08;;;;;;;5.15;3.92;;;0.50;99.90;;;;;;469556;252;27546;-70
2024/04/22 02:25:09;;;;;;;4.25;3.95;;;0.50;99.90;;;;;;469547;252;27863;-71
2024/04/22 02:27:11;;;;;;;5.80;4.57;;;0.60;99.90;;;;;;469529;252;27946;-71
2024/04/22 02:29:12;;;;;;;5.90;3.78;;;0.70;99.90;;;;;;469530;252;28028;-70
2024/04/22 02:31:13;;;;;;;5.25;4.05;;;0.60;99.90;;;;;;469535;252;27993;-71
2024/04/22 02:33:14;;;;;;;4.93;3.72;;;0.60;99.90;;;;;;469565;252;27469;-71
2024/04/22 02:35:16;;;;;;;6.75;4.37;;;0.70;99.90;;;;;;469553;252;27451;-70
2024/04/22 02:37:17;;;;;;;4.28;3.87;;;0.60;99.90;;;;;;469539;252;27527;-70
2024/04/22 02:39:18;;;;;;;4.93;3.90;;;0.60;99.90;;;;;;469506;252;27447;-70
2024/04/22 02:41:19;;;;;;;6.28;4.05;;;0.60;99.90;;;;;;469530;252;27525;-71
2024/04/22 02:43:21;;;;;;;5.93;4.40;;;0.70;99.90;;;;;;469522;252;27477;-71
2024/04/22 02:45:22;;;;;;;4.47;3.85;;;0.70;99.90;;;;;;469518;252;27431;-70
2024/04/22 02:47:23;;;;;;;6.07;5.12;;;0.60;99.90;;;;;;469480;252;27470;-70
2024/04/22 02:49:24;;;;;;;5.47;4.93;;;0.60;99.90;;;;;;469501;252;27471;-71
2024/04/22 02:51:26;;;;;;;6.18;4.20;;;0.60;99.90;;;;;;469488;252;27527;-71
2024/04/22 02:53:27;;;;;;;4.25;3.75;;;0.60;99.90;;;;;;469466;252;28018;-70
2024/04/22 02:55:31;;;;;;;6.00;4.28;;;0.60;99.90;;;;;;469461;252;27988;-70
2024/04/22 02:57:29;;;;;;;4.03;3.60;;;0.60;99.90;;;;;;469324;252;29114;-70
2024/04/22 02:59:31;;;;;;;4.68;4.10;;;0.60;99.90;;;;;;469457;252;27941;-70
2024/04/22 03:01:35;;;;;;;4.90;4.20;;;0.60;99.90;;;;;;469490;252;27538;-70
2024/04/22 03:03:33;;;;;;;5.82;4.25;;;0.60;99.90;;;;;;469337;252;27455;-70
2024/04/22 03:05:34;;;;;;;5.00;3.90;;;0.60;99.90;;;;;;469480;252;27479;-71
2024/04/22 03:07:36;;;;;;;6.62;4.78;;;0.70;99.90;;;;;;469351;252;27492;-70
2024/04/22 03:09:40;;;;;;;4.20;3.72;;;0.70;99.90;;;;;;469498;252;27451;-71
2024/04/22 03:11:38;;;;;;;5.60;4.20;;;0.80;99.90;;;;;;469345;253;27431;-71
2024/04/22 03:13:39;;;;;;;6.00;4.53;;;0.80;99.90;;;;;;469495;252;27531;-70
2024/04/22 03:15:41;;;;;;;4.32;3.95;;;0.70;99.90;;;;;;469519;252;27807;-72
2024/04/22 03:17:42;;;;;;;6.95;4.32;;;0.70;99.90;;;;;;469524;252;27504;-70
2024/04/22 03:19:43;;;;;;;5.85;3.70;;;0.80;99.90;;;;;;469534;252;27475;-70
2024/04/22 03:21:44;;;;;;;4.62;4.00;;;0.80;99.90;;;;;;469472;252;27871;-70
2024/04/22 03:23:46;;;;;;;7.05;4.10;;;0.80;99.90;;;;;;469500;252;27942;-70
2024/04/22 03:25:47;;;;;;;4.03;3.72;;;0.80;99.90;;;;;;469540;252;28161;-72
2024/04/22 03:27:48;;;;;;;6.80;3.72;;;0.80;99.90;;;;;;469509;252;27962;-71
2024/04/22 03:29:49;;;;;;;5.68;4.18;;;0.80;99.90;;;;;;469516;252;27478;-71
2024/04/22 03:31:51;;;;;;;4.80;3.72;;;0.70;99.90;;;;;;469528;252;27585;-70
2024/04/22 03:33:52;;;;;;;4.30;3.90;;;0.80;99.90;;;;;;469542;252;27469;-71
2024/04/22 03:35:53;;;;;;;8.48;4.18;;;0.80;99.90;;;;;;469531;252;27462;-71
2024/04/22 03:37:54;;;;;;;6.57;4.25;;;0.80;99.90;;;;;;469515;252;27509;-71
2024/04/22 03:39:56;;;;;;;5.18;3.70;;;0.80;99.90;;;;;;469507;252;27466;-71
2024/04/22 03:41:57;;;;;;;4.68;3.87;;;0.80;99.90;;;;;;469532;252;27449;-71
2024/04/22 03:43:58;;;;;;;9.35;3.85;;;0.80;99.90;;;;;;469524;252;27435;-70
2024/04/22 03:50:40;;;;;;;3.87;3.55;;;0.70;99.90;;;;;;469498;253;27510;-70
2024/04/22 03:52:39;;;;;;;5.05;4.18;;;0.70;99.90;;;;;;469404;253;27538;-71
2024/04/22 03:54:41;;;;;;;5.95;3.95;;;0.70;99.90;;;;;;469487;252;27913;-70
2024/04/22 03:56:42;;;;;;;4.35;3.95;;;0.60;99.90;;;;;;469503;252;27997;-70
2024/04/22 03:58:43;;;;;;;4.60;3.65;;;0.70;99.90;;;;;;469523;252;27998;-71
2024/04/22 04:00:44;;;;;;;4.68;4.03;;;0.60;99.90;;;;;;469507;252;27878;-70
2024/04/22 04:02:46;;;;;;;4.50;4.10;;;0.60;99.90;;;;;;469516;252;27469;-71
2024/04/22 04:04:47;;;;;;;4.05;3.65;;;0.50;99.90;;;;;;469501;252;27411;-70
2024/04/22 04:06:48;;;;;;;6.75;4.43;;;0.50;99.90;;;;;;469524;252;27455;-71
2024/04/22 04:08:49;;;;;;;4.75;4.35;;;0.50;99.90;;;;;;469531;252;27563;-71
2024/04/22 04:10:55;;;;;;;5.30;4.40;;;0.40;99.90;;;;;;469480;252;27459;-70
2024/04/22 04:12:52;;;;;;;6.30;4.90;;;0.40;99.90;;;;;;469207;253;27463;-70
2024/04/22 04:14:53;;;;;;;6.22;4.45;;;0.40;99.90;;;;;;469510;252;27471;-70
2024/04/22 04:16:54;;;;;;;5.80;5.20;;;0.40;99.90;;;;;;469520;252;27419;-71
2024/04/22 04:18:56;;;;;;;5.15;4.65;;;0.40;99.90;;;;;;469525;252;27454;-70
2024/04/22 04:20:58;;;;;;;10.50;4.45;;;0.30;99.90;;;;;;469498;252;27415;-70
2024/04/22 04:22:58;;;;;;;4.85;4.35;;;0.30;99.90;;;;;;469513;252;27919;-70
2024/04/22 04:24:59;;;;;;;4.37;3.97;;;0.30;99.90;;;;;;469533;252;28030;-71
2024/04/22 04:27:01;;;;;;;6.87;4.80;;;0.30;99.90;;;;;;469512;253;27968;-70
2024/04/22 04:29:02;;;;;;;4.78;3.95;;;0.30;99.90;;;;;;469510;252;27969;-72
2024/04/22 04:31:03;;;;;;;5.45;3.45;;;0.20;99.90;;;;;;469493;252;27454;-70
2024/04/22 04:33:04;;;;;;;5.32;3.95;;;0.20;99.90;;;;;;469527;252;27530;-70
2024/04/22 04:35:06;;;;;;;6.45;4.32;;;0.20;99.90;;;;;;469519;251;27478;-71
2024/04/22 04:37:07;;;;;;;4.45;3.90;;;0.20;99.90;;;;;;469520;252;27489;-70
2024/04/22 04:39:09;;;;;;;7.07;4.10;;;0.20;99.90;;;;;;469518;252;27483;-70
2024/04/22 04:41:09;;;;;;;5.47;4.25;;;0.20;99.90;;;;;;469524;252;27514;-70
2024/04/22 04:43:11;;;;;;;4.85;4.35;;;0.30;99.90;;;;;;469503;252;27472;-70
2024/04/22 04:45:12;;;;;;;4.95;4.10;;;0.20;99.90;;;;;;469497;252;27494;-71
2024/04/22 04:47:13;;;;;;;4.57;3.95;;;0.20;99.90;;;;;;469476;252;27490;-70
2024/04/22 04:49:14;;;;;;;4.18;3.67;;;0.20;99.90;;;;;;469463;252;27476;-70
2024/04/22 04:51:16;;;;;;;4.93;3.92;;;0.20;99.90;;;;;;469482;252;28661;-70
2024/04/22 04:53:17;;;;;;;4.87;3.53;;;0.20;99.90;;;;;;469536;252;27921;-70
2024/04/22 04:55:18;;;;;;;7.65;4.12;;;0.30;99.90;;;;;;469517;252;28038;-71
2024/04/22 04:57:19;;;;;;;4.78;4.20;;;0.30;99.90;;;;;;469505;252;27882;-70
2024/04/22 04:59:21;;;;;;;4.03;3.62;;;0.30;99.90;;;;;;469486;252;27462;-70
2024/04/22 05:01:22;;;;;;;4.45;4.05;;;0.40;99.90;;;;;;469514;252;27452;-70
2024/04/22 05:03:23;;;;;;;6.05;4.40;;;0.40;99.90;;;;;;469492;252;27415;-70
2024/04/22 05:05:24;;;;;;;7.80;5.30;;;0.40;99.90;;;;;;469529;252;27482;-70
2024/04/22 05:07:26;;;;;;;5.68;4.35;;;0.50;99.90;;;;;;469488;252;27504;-70
2024/04/22 05:09:27;;;;;;;5.35;4.60;;;0.60;99.90;;;;;;469495;252;27588;-70
2024/04/22 05:11:28;;;;;;;6.03;4.15;;;0.60;99.90;;;;;;469558;252;27466;-72
2024/04/22 05:13:29;;;;;;;7.82;4.57;;;0.70;99.90;;;;;;469503;252;27902;-70
2024/04/22 05:15:31;;;;;;;6.32;4.57;;;0.70;99.90;;;;;;469523;252;27455;-70
2024/04/22 05:17:32;;;;;;;5.15;4.53;;;0.80;99.90;;;;;;469505;252;27419;-70
2024/04/22 05:19:33;;;;;;;5.87;4.75;;;0.80;99.90;;;;;;469533;252;27440;-70
2024/04/22 05:21:35;;;;;;;7.18;4.97;;;0.90;99.90;;;;;;469524;252;27454;-71
2024/04/22 05:23:36;;;;;;;4.70;4.30;;;0.90;99.90;;;;;;469502;252;27486;-70
2024/04/22 05:25:37;;;;;;;4.97;4.30;;;1.00;99.90;;;;;;469515;252;27589;-71
2024/04/22 05:27:38;;;;;;;4.93;4.30;;;1.10;99.90;;;;;;469507;252;27511;-70
2024/04/22 05:29:40;;;;;;;4.55;3.80;;;1.00;99.90;;;;;;469503;252;27508;-71
2024/04/22 05:31:41;;;;;;;5.12;4.20;;;1.10;99.90;;;;;;469524;252;27482;-70
2024/04/22 05:36:14;;;;;;;4.68;3.70;;;1.20;99.90;;;;;;469513;253;27477;-70
2024/04/22 05:38:12;;;;;;;5.90;4.07;;;1.20;99.90;;;;;;469367;253;27553;-71
2024/04/22 05:40:13;;;;;;;6.85;4.07;;;1.20;99.90;;;;;;469522;252;27566;-71
2024/04/22 05:42:14;;;;;;;5.87;4.55;;;1.20;99.90;;;;;;469484;252;27839;-71
2024/04/22 05:44:16;;;;;;;6.35;4.47;;;1.30;99.90;;;;;;469503;252;27940;-71
2024/04/22 05:46:17;;;;;;;5.90;4.47;;;1.30;99.90;;;;;;469505;252;28764;-71
2024/04/22 05:48:18;;;;;;;5.35;4.20;;;1.30;99.90;;;;;;469494;252;28030;-71
2024/04/22 05:50:19;;;;;;;4.47;3.85;;;1.30;99.90;;;;;;469508;252;27449;-72
2024/04/22 05:52:21;;;;;;;4.85;4.43;;;1.30;99.90;;;;;;469473;252;27453;-71
2024/04/22 05:54:22;;;;;;;5.15;4.62;;;1.30;99.90;;;;;;469452;253;27466;-71
2024/04/22 05:56:23;;;;;;;8.85;5.60;;;1.40;99.90;;;;;;469493;252;27542;-71
2024/04/22 05:58:24;;;;;;;8.00;4.78;;;1.50;99.90;;;;;;469521;252;27411;-71
2024/04/22 06:00:25;;;;;;;4.68;4.12;;;1.50;99.90;;;;;;469524;252;27473;-71
2024/04/22 06:02:27;;;;;;;4.40;4.00;;;1.60;99.90;;;;;;469499;252;27439;-71
2024/04/22 06:04:29;;;;;;;4.50;4.00;;;1.60;99.90;;;;;;469504;252;27454;-71
2024/04/22 06:06:29;;;;;;;4.90;4.40;;;1.60;99.90;;;;;;469462;252;27817;-72
2024/04/22 06:08:30;;;;;;;4.35;3.95;;;1.70;99.90;;;;;;469494;252;27577;-71
2024/04/22 06:10:32;;;;;;;4.32;3.92;;;1.70;99.90;;;;;;469487;252;28053;-71
2024/04/22 06:12:33;;;;;;;6.32;4.20;;;1.80;99.90;;;;;;469475;252;28053;-71
2024/04/22 06:14:35;;;;;;;4.55;4.10;;;1.80;99.90;;;;;;469449;252;28251;-71
2024/04/22 06:16:35;;;;;;;4.62;4.10;;;1.90;99.90;;;;;;469449;252;27918;-72
2024/04/22 06:18:37;;;;;;;5.47;3.87;;;1.90;99.90;;;;;;469485;252;27427;-71
2024/04/22 06:20:38;;;;;;;4.62;3.80;;;1.90;99.90;;;;;;469504;252;27547;-71
2024/04/22 06:22:39;;;;;;;5.90;3.90;;;1.90;99.90;;;;;;469492;252;27416;-71
2024/04/22 06:24:40;;;;;;;4.80;3.80;;;2.00;99.90;;;;;;469515;252;27450;-71
2024/04/22 06:26:42;;;;;;;3.83;3.47;;;1.90;99.90;;;;;;469512;252;27569;-72
2024/04/22 06:28:43;;;;;;;5.12;4.25;;;2.00;99.90;;;;;;469527;252;27420;-71
2024/04/22 06:30:44;;;;;;;4.43;3.30;;;2.00;99.90;;;;;;469503;252;27458;-71
2024/04/22 06:32:45;;;;;;;4.40;3.75;;;2.10;99.90;;;;;;469474;251;27447;-72
2024/04/22 06:34:47;;;;;;;4.15;3.75;;;2.10;99.90;;;;;;469490;252;27419;-71
2024/04/22 06:36:48;;;;;;;3.83;3.42;;;2.20;99.90;;;;;;469492;252;27915;-71
2024/04/22 06:38:49;;;;;;;4.05;3.65;;;2.20;99.90;;;;;;469505;252;27887;-71
2024/04/22 06:40:50;;;;;;;4.10;3.70;;;2.30;99.90;;;;;;469473;252;27987;-71
2024/04/22 06:42:52;;;;;;;4.45;4.05;;;2.40;99.90;;;;;;469510;252;27603;-72
2024/04/22 06:44:53;;;;;;;11.38;4.07;;;2.50;99.90;;;;;;469501;252;27511;-71
2024/04/22 06:46:54;;;;;;;5.68;4.00;;;2.60;99.90;;;;;;469471;252;27534;-71
2024/04/22 06:48:55;;;;;;;8.73;3.90;;;2.70;99.90;;;;;;469449;252;27431;-71
2024/04/22 06:50:58;;;;;;;5.43;4.05;;;2.70;99.90;;;;;;469480;252;27596;-71
2024/04/22 06:52:58;;;;;;;5.43;3.75;;;2.70;99.90;;;;;;469417;252;27875;-72
2024/04/22 06:54:59;;;;;;;3.80;3.50;;;2.80;99.90;;;;;;469500;252;28016;-71
2024/04/22 06:57:00;;;;;;;4.70;3.50;;;2.70;99.90;;;;;;469495;252;27947;-71
2024/04/22 06:59:02;;;;;;;4.40;3.65;;;2.80;99.90;;;;;;469476;251;28798;-71
2024/04/22 07:01:03;;;;;;;4.45;3.28;;;2.90;99.90;;;;;;469478;252;29075;-71
2024/04/22 07:03:04;;;;;;;6.22;3.92;;;3.00;99.90;;;;;;469495;252;27553;-71
2024/04/22 07:05:05;;;;;;;3.75;3.45;;;3.10;99.90;;;;;;469481;252;27427;-71
2024/04/22 07:07:07;;;;;;;3.70;3.40;;;3.20;99.90;;;;;;469513;252;27451;-71
2024/04/22 07:09:16;;;;;;;4.43;4.03;;;3.20;99.90;;;;;;469521;252;27554;-71
2024/04/22 07:11:12;;;;;;;7.28;4.43;;;3.30;99.90;;;;;;469216;253;27483;-72
2024/04/22 07:13:13;;;;;;;6.47;4.50;;;3.30;99.90;;;;;;469511;252;27512;-72
2024/04/22 07:15:15;;;;;;;4.45;3.67;;;3.30;99.90;;;;;;469492;252;27542;-71
2024/04/22 07:17:16;;;;;;;4.72;3.90;;;3.50;99.90;;;;;;469523;252;27415;-71
2024/04/22 07:19:17;;;;;;;7.30;3.87;;;3.60;99.90;;;;;;469530;252;27444;-71
2024/04/22 07:21:18;;;;;;;4.50;3.75;;;3.60;99.90;;;;;;469509;252;27478;-71
2024/04/22 07:23:20;;;;;;;3.70;3.10;;;3.70;99.90;;;;;;469514;252;27422;-71
2024/04/22 07:25:21;;;;;;;3.85;3.30;;;3.80;99.90;;;;;;469487;252;27510;-72
2024/04/22 07:27:22;;;;;;;5.60;3.58;;;3.80;99.90;;;;;;469513;252;27466;-72
2024/04/22 07:29:23;;;;;;;6.18;3.80;;;3.80;99.90;;;;;;469503;252;27885;-71
2024/04/22 07:31:25;;;;;;;6.85;3.72;;;3.80;99.90;;;;;;469476;252;27937;-71
2024/04/22 07:33:26;;;;;;;3.33;3.03;;;4.00;99.90;;;;;;469483;252;27979;-72
2024/04/22 07:37:37;;;;;;;5.00;4.07;;;4.20;99.80;;;;;;502021;233;37951;-72
2024/04/22 07:39:38;;;;;;;4.57;4.18;;;4.20;99.90;;;;;;494158;240;27853;-74
2024/04/22 07:41:40;;;;;;;7.10;3.70;;;4.30;99.90;;;;;;494134;240;27471;-72
2024/04/22 07:43:41;;;;;;;3.67;3.05;;;4.30;99.90;;;;;;494127;240;27506;-73
2024/04/22 07:45:42;;;;;;;5.32;3.00;;;4.40;99.90;;;;;;494121;240;27918;-72
2024/04/22 07:47:43;;;;;;;5.28;3.55;;;4.50;99.40;;;;;;494092;240;27978;-72
2024/04/22 07:49:45;;;;;;;3.60;3.17;;;4.60;99.90;;;;;;494198;240;27994;-73
2024/04/22 07:51:46;;;;;;;4.00;3.40;;;4.60;99.90;;;;;;494174;240;27475;-70
2024/04/22 07:53:47;;;;;;;3.30;3.00;;;4.70;99.50;;;;;;494164;240;27518;-70
2024/04/22 07:55:48;;;;;;;3.95;3.35;;;4.70;99.60;;;;;;494126;240;27459;-70
2024/04/22 07:57:51;;;;;;;4.80;3.03;;;4.70;99.90;;;;;;494196;240;27573;-71
2024/04/22 07:59:51;;;;;;;3.90;2.87;;;4.80;99.40;;;;;;494097;240;27510;-71
2024/04/22 08:01:52;;;;;;;4.15;3.65;;;4.80;98.50;;;;;;494177;240;27537;-71
2024/04/22 08:03:53;;;;;;;4.80;3.62;;;4.80;98.60;;;;;;494157;240;27493;-70
2024/04/22 08:05:55;;;;;;;3.70;3.10;;;4.90;98.40;;;;;;494172;240;28037;-70
2024/04/22 08:07:56;;;;;;;4.20;3.55;;;4.90;98.00;;;;;;494192;240;28045;-71
2024/04/22 08:09:57;;;;;;;4.53;3.45;;;5.00;98.10;;;;;;494174;240;28007;-71
2024/04/22 08:11:59;;;;;;;5.68;3.60;;;5.10;97.60;;;;;;494125;240;27537;-70
2024/04/22 08:14:00;;;;;;;3.28;2.97;;;5.10;96.60;;;;;;494028;240;27492;-71
2024/04/22 08:16:01;;;;;;;4.70;3.62;;;5.00;96.70;;;;;;494165;240;27506;-71
2024/04/22 08:18:02;;;;;;;5.78;3.80;;;5.10;97.60;;;;;;494147;240;27460;-71
2024/04/22 08:20:03;;;;;;;6.07;3.70;;;5.10;96.30;;;;;;494131;240;27506;-70
2024/04/22 08:22:05;;;;;;;4.10;3.42;;;5.10;97.40;;;;;;494132;240;27549;-72
2024/04/22 08:24:06;;;;;;;8.38;3.40;;;5.20;97.00;;;;;;494143;240;27957;-72
2024/04/22 08:26:07;;;;;;;5.62;3.15;;;5.30;96.50;;;;;;494141;240;28094;-73
2024/04/22 08:28:09;;;;;;;3.50;3.20;;;5.30;96.20;;;;;;494121;240;27461;-72
2024/04/22 08:30:10;;;;;;;3.40;3.10;;;5.50;96.50;;;;;;494122;240;27496;-73
2024/04/22 08:32:11;;;;;;;3.37;3.08;;;5.40;95.90;;;;;;494137;240;27508;-73
2024/04/22 08:34:12;;;;;;;3.72;3.30;;;5.40;96.00;;;;;;494121;240;27560;-71
2024/04/22 08:36:15;;;;;;;4.62;3.28;;;5.60;96.30;;;;;;494125;240;27492;-71
2024/04/22 08:38:15;;;;;;;4.50;3.10;;;5.70;96.30;;;;;;494059;240;27592;-70
2024/04/22 08:40:16;;;;;;;4.00;3.28;;;5.90;96.30;;;;;;494141;240;28080;-70
2024/04/22 08:42:19;;;;;;;4.80;3.40;;;5.90;95.40;;;;;;494154;240;28003;-72
2024/04/22 08:44:18;;;;;;;3.33;3.03;;;5.90;95.20;;;;;;493985;240;27470;-70
2024/04/22 08:46:20;;;;;;;3.35;3.05;;;5.80;94.50;;;;;;494170;240;27504;-71
2024/04/22 08:48:21;;;;;;;6.53;3.10;;;5.70;93.60;;;;;;494065;240;27501;-71
2024/04/22 08:50:22;;;;;;;6.15;2.97;;;5.90;94.40;;;;;;494037;241;27547;-71
2024/04/22 08:52:23;;;;;;;3.37;3.05;;;6.10;93.40;;;;;;494085;241;27505;-71
2024/04/22 08:54:25;;;;;;;3.90;2.90;;;6.10;93.00;;;;;;494059;241;27501;-70
2024/04/22 08:56:26;;;;;;;3.60;2.62;;;5.90;92.60;;;;;;494016;237;28023;-71
2024/04/22 08:58:27;;;;;;;3.85;2.92;;;5.80;92.40;;;;;;494007;241;28698;-70
2024/04/22 09:00:29;;;;;;;2.90;2.70;;;5.80;92.30;;;;;;494060;237;27469;-71
2024/04/22 09:02:30;;;;;;;2.92;2.62;;;5.70;92.30;;;;;;494027;241;27562;-71
2024/04/22 09:04:31;;;;;;;5.35;3.28;;;5.80;93.10;;;;;;494018;237;27466;-70
2024/04/22 09:06:33;;;;;;;2.55;2.35;;;6.00;92.40;;;;;;494031;237;27509;-71
2024/04/22 09:08:34;;;;;;;5.72;3.60;;;6.10;92.20;;;;;;494039;241;27597;-71
2024/04/22 09:10:36;;;;;;;3.47;3.17;;;6.00;91.60;;;;;;494082;241;28006;-71
2024/04/22 09:12:36;;;;;;;3.40;3.10;;;6.00;91.80;;;;;;493906;241;27514;-71
2024/04/22 09:14:38;;;;;;;3.65;3.10;;;5.90;91.60;;;;;;494063;241;27458;-71
2024/04/22 09:16:39;;;;;;;3.90;2.62;;;5.90;91.40;;;;;;493975;237;27490;-71
2024/04/22 09:18:40;;;;;;;3.10;2.45;;;5.80;90.50;;;;;;494073;241;27524;-72
2024/04/22 09:20:41;;;;;;;3.20;2.90;;;5.80;91.60;;;;;;494064;241;27464;-71
2024/04/22 09:22:42;;;;;;;5.32;2.83;;;5.80;90.60;;;;;;494040;241;27984;-71
2024/04/22 09:24:44;;;;;;;3.83;2.90;;;6.00;91.50;;;;;;494037;241;28790;-71
2024/04/22 09:26:45;;;;;;;3.00;2.80;;;6.10;91.10;;;;;;494031;241;27610;-72
2024/04/22 09:28:46;;;;;;;2.30;2.10;;;6.10;91.00;;;;;;494049;241;27526;-71
2024/04/22 09:30:48;;;;;;;2.92;2.72;;;6.10;90.10;;;;;;494048;241;27566;-71
2024/04/22 09:32:49;;;;;;;3.05;2.60;;;6.10;89.50;;;;;;494023;241;27573;-72
2024/04/22 09:34:50;;;;;;;4.15;2.92;;;6.10;90.50;;;;;;494003;241;27534;-72
2024/04/22 09:36:51;;;;;;;3.10;2.80;;;6.00;91.00;;;;;;494055;241;27906;-71
2024/04/22 09:38:52;;;;;;;2.90;2.70;;;6.00;90.60;;;;;;494039;241;28273;-71
2024/04/22 09:40:54;;;;;;;3.00;2.50;;;5.90;91.10;;;;;;494025;241;27908;-71
2024/04/22 09:42:55;;;;;;;4.97;2.75;;;6.00;91.50;;;;;;494011;241;27513;-70
2024/04/22 09:44:56;;;;;;;3.33;3.03;;;6.20;91.50;;;;;;494055;241;27538;-71
2024/04/22 09:46:57;;;;;;;4.87;2.53;;;6.20;91.60;;;;;;493941;241;27456;-71
2024/04/22 09:48:59;;;;;;;3.40;2.53;;;6.40;91.70;;;;;;493931;241;27611;-71
2024/04/22 09:51:00;;;;;;;2.85;2.65;;;6.60;91.00;;;;;;493928;241;28502;-71
2024/04/22 09:53:01;;;;;;;3.40;2.60;;;6.60;90.90;;;;;;494008;241;28019;-71
2024/04/22 09:55:02;;;;;;;2.80;2.50;;;6.70;90.70;;;;;;493794;241;28474;-71
2024/04/22 09:57:04;;;;;;;2.40;2.30;;;6.60;90.10;;;;;;493967;241;27939;-71
2024/04/22 09:59:05;;;;;;;8.83;2.70;;;6.60;91.20;;;;;;493983;241;27617;-71
2024/04/22 10:01:06;;;;;;;7.87;2.50;;;6.70;91.60;;;;;;494012;241;28865;-70
2024/04/22 10:03:07;;;;;;;3.30;3.00;;;6.60;91.40;;;;;;494013;241;27923;-71
2024/04/22 10:05:09;;;;;;;2.70;2.50;;;6.50;91.40;;;;;;493996;241;28604;-71
2024/04/22 10:07:10;;;;;;;2.70;2.47;;;6.60;91.20;;;;;;494025;241;28879;-71
2024/04/22 10:09:11;;;;;;;2.10;1.90;;;6.70;90.70;;;;;;494022;241;28839;-70
2024/04/22 10:11:12;;;;;;;3.57;2.50;;;6.90;89.80;;;;;;494051;241;28600;-74
2024/04/22 10:13:14;;;;;;;2.77;2.53;;;7.00;89.60;;;;;;494026;241;27945;-71
2024/04/22 10:15:15;;;;;;;3.00;2.70;;;7.20;89.90;;;;;;494026;241;27944;-71
2024/04/22 10:17:16;;;;;;;2.80;2.60;;;7.40;86.50;;;;;;494024;241;28023;-71
2024/04/22 10:19:17;;;;;;;2.70;2.40;;;7.50;89.00;;;;;;494032;241;27966;-71
2024/04/22 10:21:19;;;;;;;2.90;2.67;;;7.40;88.00;;;;;;494034;241;27603;-72
2024/04/22 10:23:20;;;;;;;2.90;2.60;;;7.10;88.00;;;;;;494019;241;28454;-71
2024/04/22 10:25:21;;;;;;;3.33;2.83;;;7.10;87.20;;;;;;494043;241;28473;-71
2024/04/22 10:27:22;;;;;;;3.40;2.50;;;6.90;88.70;;;;;;494020;241;29313;-71
2024/04/22 10:29:24;;;;;;;2.53;2.33;;;7.00;88.60;;;;;;494029;241;28404;-71
2024/04/22 10:31:25;;;;;;;3.00;2.70;;;7.00;86.80;;;;;;494034;241;28033;-71
2024/04/22 10:33:26;;;;;;;3.42;3.00;;;6.90;86.30;;;;;;494039;241;28349;-71
2024/04/22 10:35:27;;;;;;;5.60;2.67;;;6.90;87.60;;;;;;494025;237;27588;-71
2024/04/22 10:37:29;;;;;;;2.67;2.47;;;6.70;88.10;;;;;;494043;241;27989;-71
2024/04/22 10:39:30;;;;;;;3.05;2.50;;;6.50;88.10;;;;;;494029;241;27970;-71
2024/04/22 10:41:31;;;;;;;3.50;2.63;;;6.50;88.60;;;;;;494029;241;27506;-71
2024/04/22 10:43:32;;;;;;;3.17;2.77;;;6.40;88.50;;;;;;494001;241;27921;-71
2024/04/22 10:45:34;;;;;;;2.60;2.40;;;6.50;89.70;;;;;;494018;241;28902;-71
2024/04/22 10:47:35;;;;;;;2.70;2.50;;;6.80;90.00;;;;;;494059;241;27685;-72